Haskells, Indiana
Current Conditions -  °F | °C
As of 10:56 PM on Thursday 30 Oct 2014 (Local Time) from KVPZ Reporting Station
Few Clouds Few Clouds  
Wind Chill: 41°   Ceiling: Unl
Heat Index: 44°   Visibility: 10mi
Dew Point: 36°   Wind: 6mph
Humidity: 73%   Direction: 250°WSW
Pressure: 30.04"   Gusts: NA
Location:  41.4092°N, 86.8646°W
Report Text: KVPZ 310356Z AUTO 25005KT 10SM FEW055 FEW110 07/02 A3004 RMK AO2 SLP177 T00670022 TSNO
Loading
Personal Weather Stations






























Interactive Weather Map
Tropical Storm Tracking
New forecast layout! Learn more

10-Day Weather Forecast

Advertisements
Track Severe Weather on mobile